This is the latest recevied weather packets stored in our database for station/object WA7CUG. If no packets are shown the sender has not sent any weather packets the latest 10 day(s).
| Time | Temp. | Humidity | Pressure | Rain* | Wind** | Luminosity | Snow |
|---|---|---|---|---|---|---|---|
| 1777707245 | 12.78° C | 63% | 1016.6 hPa | 0 mm | - | 0 W/m² | - |
| 1777706944 | 14.44° C | 58% | 1016.6 hPa | 0 mm | - | 0 W/m² | - |
| 1777706640 | 13.89° C | 57% | 1016.4 hPa | 0 mm | - | 0 W/m² | - |
| 1777706338 | 12.78° C | 63% | 1016.6 hPa | 0 mm | - | 0 W/m² | - |
| 1777706035 | 12.78° C | 69% | 1016.3 hPa | 0 mm | - | 0 W/m² | - |
| 1777705733 | 13.33° C | 60% | 1016.3 hPa | 0 mm | - | 0 W/m² | - |
| 1777705431 | 13.33° C | 60% | 1016.4 hPa | 0 mm | - | 0 W/m² | - |
| 1777705130 | 14.44° C | 59% | 1016.4 hPa | 0 mm | - | 0 W/m² | - |
| 1777704827 | 13.89° C | 59% | 1016.1 hPa | 0 mm | - | 0 W/m² | - |
| 1777704525 | 14.44° C | 57% | 1016.3 hPa | 0 mm | - | 0 W/m² | - |
| 1777704223 | 14.44° C | 60% | 1016.4 hPa | 0 mm | - | 0 W/m² | - |
| 1777703919 | 13.89° C | 57% | 1016.3 hPa | 0 mm | - | 0 W/m² | - |
| 1777703617 | 13.89° C | 58% | 1016.2 hPa | 0 mm | - | 0 W/m² | - |
| 1777703315 | 14.44° C | 59% | 1016.1 hPa | 0 mm | - | 0 W/m² | - |
| 1777703012 | 16.11° C | 53% | 1016.1 hPa | 0 mm | - | 0 W/m² | - |
| 1777702711 | 16.11° C | 49% | 1016.2 hPa | 0 mm | - | 0 W/m² | - |
| 1777702408 | 14.44° C | 61% | 1016.4 hPa | 0 mm | - | 0 W/m² | - |
| 1777702103 | 13.89° C | 57% | 1016 hPa | 0 mm | - | 0 W/m² | - |
| 1777701799 | 15° C | 58% | 1016 hPa | 0 mm | - | 0 W/m² | - |
| 1777701497 | 15.56° C | 60% | 1015.9 hPa | 0 mm | - | 0 W/m² | - |
| 1777701195 | 15.56° C | 51% | 1015.8 hPa | 0 mm | - | 0 W/m² | - |
| 1777700894 | 15.56° C | 56% | 1016 hPa | 0 mm | - | 0 W/m² | - |
| 1777700591 | 16.11° C | 54% | 1016 hPa | 0 mm | - | 0 W/m² | - |
| 1777700288 | 16.11° C | 49% | 1016 hPa | 0 mm | - | 0 W/m² | - |
| 1777699986 | 16.11° C | 53% | 1015.8 hPa | 0 mm | - | 0 W/m² | - |
* Rain latest hour (hover to see other rain measurements)
** Current wind speed in m/s (hover to see current wind gust speed)